Eviapetrol II — SY6858 — position and weather

sailwx.info

Track history (hours):
 
Tides and Currents Weather Stations Pressure Air Temp Water Temp Dewpoint Dewpoint Depression Visibility Wind Speed Wind Dir Waves Ship Positions

Eviapetrol II

Last reported at 2014-Oct-21 07:34 UTC. Time now 2014-Oct-21 13:47 UTC.
Position N 38°09' E 026°16'.

Length 78 m; draft 4.7 m.

Type: Tanker. MMSI: 240493000.

Date/timePositionNaut miles runAvg speedWind from/ knotsBaromVisibWave heightAir tempDewpointWater temp
2014-Oct-21 07:34N 38°09' E 026°16'23 9.8
2014-Oct-21 05:13N 37°48' E 026°29'6 9.5
2014-Oct-21 04:33N 37°42' E 026°33'9 9.0
2014-Oct-21 03:33N 37°34' E 026°38'9 9.1
2014-Oct-21 02:33N 37°27' E 026°45'9 9.2
2014-Oct-21 01:32N 37°19' E 026°51'  
2014-Oct-18 06:16N 36°57' E 026°14'7 9.9
2014-Oct-18 05:33N 37°01' E 026°07'10 9.7
2014-Oct-18 04:33N 37°06' E 025°57'10 9.9
2014-Oct-18 03:34N 37°11' E 025°46'1010.1
2014-Oct-18 02:32N 37°13' E 025°33'10 9.8
2014-Oct-18 01:33N 37°15' E 025°21'9 9.5
2014-Oct-18 00:33N 37°17' E 025°10'9 9.4
2014-Oct-17 23:33N 37°19' E 024°58'10 9.7
2014-Oct-17 22:33N 37°22' E 024°46'1010.5
2014-Oct-17 21:33N 37°27' E 024°35'20 9.5
2014-Oct-17 19:27N 37°32' E 024°10'18 9.4
2014-Oct-17 17:32N 37°37' E 023°49'9 9.1
2014-Oct-17 16:34N 37°43' E 023°40'10 9.6
2014-Oct-17 15:33N 37°52' E 023°36'8 7.9
2014-Oct-17 14:33N 37°60' E 023°33'2 1.0
2014-Oct-17 12:33N 38°02' E 023°32'0 0.0
2014-Oct-17 09:17N 38°02' E 023°32'0 0.0
2014-Oct-17 08:34N 38°02' E 023°32'0 0.0
2014-Oct-17 07:33N 38°02' E 023°32'0 0.0
2014-Oct-17 05:33N 38°02' E 023°32'3 2.8
2014-Oct-17 04:33N 38°02' E 023°36'0 0.0
2014-Oct-17 03:34N 38°02' E 023°36'0 0.0
2014-Oct-17 02:33N 38°02' E 023°36'0 0.0
2014-Oct-17 00:34N 38°02' E 023°36'0 0.0
2014-Oct-16 23:05N 38°02' E 023°36'0 0.0
2014-Oct-16 22:34N 38°02' E 023°36'0 0.0
2014-Oct-16 21:33N 38°02' E 023°36'0 0.0
2014-Oct-16 20:34N 38°02' E 023°36'1 0.6
2014-Oct-16 18:11N 38°01' E 023°34'3 4.2
2014-Oct-16 17:32N 38°02' E 023°31'8 8.0
2014-Oct-16 16:33N 37°57' E 023°23'1110.6
2014-Oct-16 15:33N 37°55' E 023°10'17 7.5
2014-Oct-16 13:21N 38°01' E 022°50'3511.3
2014-Oct-16 10:15N 38°17' E 022°11'54 1.1
2014-Oct-14 07:33N 37°55' E 023°14'1010.0
2014-Oct-14 06:33N 37°58' E 023°26'7 7.3
2014-Oct-14 05:33N 38°02' E 023°34'1 0.1
2014-Oct-13 15:19N 38°01' E 023°35'3 0.5
2014-Oct-13 10:19N 38°02' E 023°32'0 0.2
2014-Oct-13 09:20N 38°02' E 023°32'7 8.4
2014-Oct-13 08:33N 37°56' E 023°36'3 2.8
2014-Oct-13 07:32N 37°53' E 023°38'1110.6
2014-Oct-13 06:33N 37°44' E 023°44'21 9.4
2014-Oct-13 04:16N 37°40' E 024°10'710.3
2014-Oct-13 03:33N 37°45' E 024°17'9 9.5
2014-Oct-13 02:33N 37°51' E 024°26'1010.2
2014-Oct-13 01:33N 37°57' E 024°37'1210.2
2014-Oct-13 00:23N 38°04' E 024°49'80 2.6
2014-Oct-11 17:09N 37°48' E 026°29'25 9.0
2014-Oct-11 14:26N 37°27' E 026°45'  
Track history (hours):
 
Tides and Currents Weather Stations Pressure Air Temp Water Temp Dewpoint Dewpoint Depression Visibility Wind Speed Wind Dir Waves Ship Positions

Eviapetrol II

Last reported at 2014-Oct-21 07:34 UTC. Time now 2014-Oct-21 13:47 UTC.
Position N 38°09' E 026°16'.

Length 78 m; draft 4.7 m.

Type: Tanker. MMSI: 240493000.

Date/timePositionNaut miles runAvg speedWind from/ knotsBaromVisibWave heightAir tempDewpointWater temp
2014-Oct-21 07:34N 38°09' E 026°16'23 9.8
2014-Oct-21 05:13N 37°48' E 026°29'6 9.5
2014-Oct-21 04:33N 37°42' E 026°33'9 9.0
2014-Oct-21 03:33N 37°34' E 026°38'9 9.1
2014-Oct-21 02:33N 37°27' E 026°45'9 9.2
2014-Oct-21 01:32N 37°19' E 026°51'  
2014-Oct-18 06:16N 36°57' E 026°14'7 9.9
2014-Oct-18 05:33N 37°01' E 026°07'10 9.7
2014-Oct-18 04:33N 37°06' E 025°57'10 9.9
2014-Oct-18 03:34N 37°11' E 025°46'1010.1
2014-Oct-18 02:32N 37°13' E 025°33'10 9.8
2014-Oct-18 01:33N 37°15' E 025°21'9 9.5
2014-Oct-18 00:33N 37°17' E 025°10'9 9.4
2014-Oct-17 23:33N 37°19' E 024°58'10 9.7
2014-Oct-17 22:33N 37°22' E 024°46'1010.5
2014-Oct-17 21:33N 37°27' E 024°35'20 9.5
2014-Oct-17 19:27N 37°32' E 024°10'18 9.4
2014-Oct-17 17:32N 37°37' E 023°49'9 9.1
2014-Oct-17 16:34N 37°43' E 023°40'10 9.6
2014-Oct-17 15:33N 37°52' E 023°36'8 7.9
2014-Oct-17 14:33N 37°60' E 023°33'2 1.0
2014-Oct-17 12:33N 38°02' E 023°32'0 0.0
2014-Oct-17 09:17N 38°02' E 023°32'0 0.0
2014-Oct-17 08:34N 38°02' E 023°32'0 0.0
2014-Oct-17 07:33N 38°02' E 023°32'0 0.0
2014-Oct-17 05:33N 38°02' E 023°32'3 2.8
2014-Oct-17 04:33N 38°02' E 023°36'0 0.0
2014-Oct-17 03:34N 38°02' E 023°36'0 0.0
2014-Oct-17 02:33N 38°02' E 023°36'0 0.0
2014-Oct-17 00:34N 38°02' E 023°36'0 0.0
2014-Oct-16 23:05N 38°02' E 023°36'0 0.0
2014-Oct-16 22:34N 38°02' E 023°36'0 0.0
2014-Oct-16 21:33N 38°02' E 023°36'0 0.0
2014-Oct-16 20:34N 38°02' E 023°36'1 0.6
2014-Oct-16 18:11N 38°01' E 023°34'3 4.2
2014-Oct-16 17:32N 38°02' E 023°31'8 8.0
2014-Oct-16 16:33N 37°57' E 023°23'1110.6
2014-Oct-16 15:33N 37°55' E 023°10'17 7.5
2014-Oct-16 13:21N 38°01' E 022°50'3511.3
2014-Oct-16 10:15N 38°17' E 022°11'54 1.1
2014-Oct-14 07:33N 37°55' E 023°14'1010.0
2014-Oct-14 06:33N 37°58' E 023°26'7 7.3
2014-Oct-14 05:33N 38°02' E 023°34'1 0.1
2014-Oct-13 15:19N 38°01' E 023°35'3 0.5
2014-Oct-13 10:19N 38°02' E 023°32'0 0.2
2014-Oct-13 09:20N 38°02' E 023°32'7 8.4
2014-Oct-13 08:33N 37°56' E 023°36'3 2.8
2014-Oct-13 07:32N 37°53' E 023°38'1110.6
2014-Oct-13 06:33N 37°44' E 023°44'21 9.4
2014-Oct-13 04:16N 37°40' E 024°10'710.3
2014-Oct-13 03:33N 37°45' E 024°17'9 9.5
2014-Oct-13 02:33N 37°51' E 024°26'1010.2
2014-Oct-13 01:33N 37°57' E 024°37'1210.2
2014-Oct-13 00:23N 38°04' E 024°49'80 2.6
2014-Oct-11 17:09N 37°48' E 026°29'25 9.0
2014-Oct-11 14:26N 37°27' E 026°45'  

Dump ship's entire track history